createdAt,value
2019-03-31T00:00:43.498Z,101829.98
2019-03-31T00:03:48.325Z,101835.28
2019-03-31T00:06:54.524Z,101843.69
2019-03-31T00:10:01.124Z,101844.53
2019-03-31T00:13:05.968Z,101845.88
2019-03-31T00:16:10.803Z,101852.05
2019-03-31T00:19:15.713Z,101868.38
2019-03-31T00:22:20.778Z,101862.17
2019-03-31T00:25:25.610Z,101868.81
2019-03-31T00:28:30.475Z,101870.13
2019-03-31T00:31:35.332Z,101870.51
2019-03-31T00:34:43.308Z,101876.72
2019-03-31T00:37:48.119Z,101872.72
2019-03-31T00:40:52.999Z,101875.76
2019-03-31T00:43:57.913Z,101871.31
2019-03-31T00:47:02.783Z,101875.71
2019-03-31T00:50:08.034Z,101875.22
2019-03-31T00:53:12.873Z,101871.25
2019-03-31T00:56:17.684Z,101876.52
2019-03-31T00:59:22.616Z,101878.23
2019-03-31T01:02:32.523Z,101884.75
2019-03-31T01:05:39.379Z,101888.25
2019-03-31T01:08:44.595Z,101895.25
2019-03-31T01:11:50.197Z,101896.95
2019-03-31T01:14:55.115Z,101899.98
2019-03-31T01:18:00.287Z,101913.58
2019-03-31T01:21:05.237Z,101911.37
2019-03-31T01:24:10.276Z,101917.97
2019-03-31T01:27:15.266Z,101916.22
2019-03-31T01:30:20.909Z,101916.55
2019-03-31T01:33:26.620Z,101910.80
2019-03-31T01:36:31.561Z,101908.48
2019-03-31T01:39:36.765Z,101914.13
2019-03-31T01:42:41.586Z,101909.69
2019-03-31T01:45:46.511Z,101911.37
2019-03-31T01:48:51.414Z,101913.12
2019-03-31T01:51:56.239Z,101917.45
2019-03-31T01:55:01.107Z,101927.48
2019-03-31T01:58:05.958Z,101923.88
2019-03-31T02:01:13.173Z,101930.48
2019-03-31T02:04:18.018Z,101934.44
2019-03-31T02:07:22.982Z,101937.84
2019-03-31T02:10:27.813Z,101942.66
2019-03-31T02:13:32.664Z,101940.43
2019-03-31T02:16:38.595Z,101940.34
2019-03-31T02:19:43.570Z,101946.87
2019-03-31T02:22:48.387Z,101945.20
2019-03-31T02:25:53.209Z,101952.02
2019-03-31T02:28:58.079Z,101950.22
2019-03-31T02:32:22.100Z,101946.68
2019-03-31T02:35:10.630Z,101951.44
2019-03-31T02:38:15.556Z,101958.85
2019-03-31T02:41:20.409Z,101961.48
2019-03-31T02:44:25.231Z,101964.05
2019-03-31T02:47:30.088Z,101967.09
2019-03-31T02:50:59.637Z,101964.39
2019-03-31T02:54:04.475Z,101968.27
2019-03-31T02:57:09.676Z,101966.05
2019-03-31T03:00:14.478Z,101964.24
2019-03-31T03:03:20.489Z,101969.52
2019-03-31T03:06:28.726Z,101972.20
2019-03-31T03:09:35.678Z,101971.78
2019-03-31T03:12:44.588Z,101976.09
2019-03-31T03:16:14.485Z,101988.02
2019-03-31T03:19:23.385Z,101984.08
2019-03-31T03:22:31.237Z,101987.97
2019-03-31T03:25:36.063Z,101985.30
2019-03-31T03:28:40.865Z,101988.02
2019-03-31T03:31:45.681Z,101997.57
2019-03-31T03:34:50.555Z,102001.88
2019-03-31T03:37:55.359Z,101997.98
2019-03-31T03:41:00.174Z,102005.81
2019-03-31T03:44:04.994Z,102007.08
2019-03-31T03:47:09.811Z,102005.32
2019-03-31T03:50:14.625Z,102011.42
2019-03-31T03:53:19.438Z,102011.83
2019-03-31T03:56:28.749Z,102001.27
2019-03-31T03:59:30.776Z,102006.04
2019-03-31T04:02:35.588Z,102009.93
2019-03-31T04:06:17.347Z,102013.86
2019-03-31T04:14:04.046Z,102016.11
2019-03-31T04:18:02.896Z,102016.52
2019-03-31T04:21:12.783Z,102014.77
2019-03-31T04:41:29.365Z,102048.25
2019-03-31T04:49:59.328Z,102052.62
2019-03-31T05:00:48.415Z,102077.11
2019-03-31T05:04:12.940Z,102087.65
2019-03-31T05:39:42.948Z,102140.62
2019-03-31T05:50:55.928Z,102152.49
2019-03-31T05:54:10.162Z,102153.41
2019-03-31T06:09:10.171Z,102168.33
2019-03-31T06:12:20.327Z,102167.84
2019-03-31T06:16:20.806Z,102168.82
2019-03-31T06:19:51.033Z,102181.69
2019-03-31T06:25:10.913Z,102185.81
2019-03-31T06:27:01.715Z,102197.58
2019-03-31T06:30:39.346Z,102193.47
2019-03-31T06:33:49.461Z,102199.08
2019-03-31T06:37:33.984Z,102207.72
2019-03-31T06:45:06.047Z,102215.02
2019-03-31T06:48:34.917Z,102227.39
2019-03-31T06:52:15.433Z,102230.13
2019-03-31T06:56:46.975Z,102223.66
2019-03-31T07:03:32.961Z,102235.82
2019-03-31T07:06:50.397Z,102245.69
2019-03-31T07:33:37.632Z,102276.75
2019-03-31T07:41:26.879Z,102263.80
2019-03-31T07:49:00.904Z,102296.30
2019-03-31T07:52:56.229Z,102307.10
2019-03-31T07:56:26.374Z,102322.02
2019-03-31T08:03:39.681Z,102327.62
2019-03-31T08:06:54.346Z,102321.47
2019-03-31T08:10:47.310Z,102319.59
2019-03-31T08:14:18.006Z,102320.52
2019-03-31T08:18:26.206Z,102331.74
2019-03-31T08:22:17.458Z,102338.11
2019-03-31T08:26:02.378Z,102357.82
2019-03-31T08:29:26.510Z,102353.37
2019-03-31T08:32:34.653Z,102363.62
2019-03-31T08:35:49.024Z,102354.00
2019-03-31T08:38:55.778Z,102356.63
2019-03-31T08:42:27.696Z,102363.19
2019-03-31T08:45:33.094Z,102356.09
2019-03-31T08:48:38.599Z,102367.91
2019-03-31T08:51:46.462Z,102373.92
2019-03-31T08:55:19.538Z,102383.09
2019-03-31T08:59:00.077Z,102381.38
2019-03-31T09:10:20.830Z,102390.34
2019-03-31T09:13:39.563Z,102391.34
2019-03-31T09:23:12.245Z,102410.97
2019-03-31T09:26:50.497Z,102416.08
2019-03-31T09:34:11.574Z,102407.81
2019-03-31T09:37:21.239Z,102404.89
2019-03-31T09:40:42.575Z,102412.06
2019-03-31T09:44:25.685Z,102411.73
2019-03-31T09:47:52.133Z,102422.23
2019-03-31T09:50:57.374Z,102422.08
2019-03-31T09:54:02.824Z,102413.74
2019-03-31T10:02:32.490Z,102425.16
2019-03-31T10:05:10.130Z,102416.67
2019-03-31T10:08:14.964Z,102417.61
2019-03-31T10:11:19.764Z,102414.41
2019-03-31T10:14:24.647Z,102419.84
2019-03-31T10:17:29.459Z,102425.18
2019-03-31T10:20:34.262Z,102427.52
2019-03-31T10:23:39.366Z,102429.94
2019-03-31T10:26:44.201Z,102425.41
2019-03-31T10:29:49.084Z,102422.45
2019-03-31T10:32:53.984Z,102422.31
2019-03-31T10:35:58.837Z,102422.28
2019-03-31T10:39:05.399Z,102431.57
2019-03-31T10:42:10.247Z,102421.91
2019-03-31T10:45:15.096Z,102421.48
2019-03-31T10:48:21.285Z,102432.62
2019-03-31T10:51:26.601Z,102434.84
2019-03-31T10:54:31.414Z,102421.11
2019-03-31T10:57:36.225Z,102427.55
2019-03-31T11:00:44.312Z,102425.89
2019-03-31T11:03:47.611Z,102431.17
2019-03-31T11:06:58.959Z,102432.04
2019-03-31T11:09:59.049Z,102437.81
2019-03-31T11:13:04.007Z,102431.83
2019-03-31T11:16:08.835Z,102430.15
2019-03-31T11:19:13.660Z,102431.27
2019-03-31T11:22:25.030Z,102442.94
2019-03-31T11:25:29.844Z,102444.19
2019-03-31T11:28:34.663Z,102448.36
2019-03-31T11:31:39.486Z,102456.09
2019-03-31T11:34:44.360Z,102455.41
2019-03-31T11:37:49.307Z,102461.95
2019-03-31T11:40:54.128Z,102465.88
2019-03-31T11:43:58.955Z,102460.27
2019-03-31T11:47:03.812Z,102464.20
2019-03-31T11:50:09.683Z,102467.44
2019-03-31T11:53:14.522Z,102461.61
2019-03-31T11:56:19.363Z,102475.84
2019-03-31T11:59:24.192Z,102468.41
2019-03-31T12:02:29.003Z,102465.69
2019-03-31T12:05:33.860Z,102462.70
2019-03-31T12:08:41.053Z,102464.30
2019-03-31T12:11:46.064Z,102462.44
2019-03-31T12:15:00.364Z,102463.02
2019-03-31T12:17:57.515Z,102459.50
2019-03-31T12:21:05.843Z,102456.33
2019-03-31T12:24:10.375Z,102461.69
2019-03-31T12:27:16.268Z,102463.20
2019-03-31T12:30:28.208Z,102462.81
2019-03-31T12:33:36.090Z,102464.40
2019-03-31T12:36:40.904Z,102470.22
2019-03-31T12:39:48.036Z,102464.00
2019-03-31T12:42:52.874Z,102465.16
2019-03-31T12:45:57.699Z,102464.14
2019-03-31T12:49:02.558Z,102464.52
2019-03-31T12:52:07.373Z,102458.60
2019-03-31T12:55:12.365Z,102460.87
2019-03-31T12:58:17.223Z,102454.69
2019-03-31T13:01:22.084Z,102466.18
2019-03-31T13:04:26.969Z,102471.50
2019-03-31T13:07:31.768Z,102472.43
2019-03-31T13:10:36.677Z,102470.23
2019-03-31T13:13:44.549Z,102472.45
2019-03-31T13:16:52.141Z,102475.13
2019-03-31T13:19:56.982Z,102474.23
2019-03-31T13:23:01.804Z,102480.89
2019-03-31T13:26:06.625Z,102476.42
2019-03-31T13:29:11.482Z,102473.78
2019-03-31T13:32:16.294Z,102479.11
2019-03-31T13:35:21.119Z,102483.98
2019-03-31T13:38:26.022Z,102486.63
2019-03-31T13:41:32.715Z,102476.86
2019-03-31T13:44:37.551Z,102487.48
2019-03-31T13:47:42.379Z,102485.73
2019-03-31T13:50:47.207Z,102498.61
2019-03-31T13:53:52.034Z,102493.74
2019-03-31T13:56:57.361Z,102483.11
2019-03-31T14:00:02.759Z,102479.55
2019-03-31T14:03:07.570Z,102473.72
2019-03-31T14:06:12.398Z,102486.02
2019-03-31T14:09:17.224Z,102483.47
2019-03-31T14:12:22.036Z,102480.87
2019-03-31T14:15:26.868Z,102475.48
2019-03-31T14:18:31.720Z,102475.05
2019-03-31T14:21:39.944Z,102481.28
2019-03-31T14:24:43.074Z,102482.39
2019-03-31T14:27:47.883Z,102483.52
2019-03-31T14:30:52.703Z,102473.95
2019-03-31T14:33:57.542Z,102473.22
2019-03-31T14:37:02.354Z,102468.73
2019-03-31T14:40:07.362Z,102471.30
2019-03-31T14:43:14.995Z,102476.19
2019-03-31T14:46:19.915Z,102468.30
2019-03-31T14:49:25.980Z,102480.72
2019-03-31T14:52:30.961Z,102468.34
2019-03-31T14:55:35.944Z,102478.08
2019-03-31T14:58:40.716Z,102475.49
2019-03-31T15:01:45.543Z,102473.06
2019-03-31T15:04:50.389Z,102481.75
2019-03-31T15:07:58.293Z,102479.59
2019-03-31T15:11:01.815Z,102478.32
2019-03-31T15:14:09.907Z,102484.50
2019-03-31T15:17:14.779Z,102486.81
2019-03-31T15:20:22.979Z,102482.36
2019-03-31T15:23:29.424Z,102481.11
2019-03-31T15:26:35.396Z,102483.81
2019-03-31T15:29:40.235Z,102488.55
2019-03-31T15:32:45.092Z,102489.81
2019-03-31T15:35:49.942Z,102495.16
2019-03-31T15:39:07.847Z,102493.45
2019-03-31T15:42:01.317Z,102490.81
2019-03-31T15:45:06.979Z,102497.19
2019-03-31T15:48:11.872Z,102491.93
2019-03-31T15:51:16.707Z,102498.14
2019-03-31T15:54:21.681Z,102490.64
2019-03-31T15:57:26.527Z,102496.31
2019-03-31T16:00:31.382Z,102495.35
2019-03-31T16:03:38.994Z,102501.56
2019-03-31T16:06:43.818Z,102491.77
2019-03-31T16:09:50.217Z,102499.34
2019-03-31T16:13:00.335Z,102508.17
2019-03-31T16:16:15.395Z,102515.31
2019-03-31T16:19:21.833Z,102518.73
2019-03-31T16:22:29.360Z,102515.48
2019-03-31T16:25:39.022Z,102519.68
2019-03-31T16:29:00.633Z,102526.75
2019-03-31T16:35:43.867Z,102529.88
2019-03-31T16:38:50.795Z,102535.02
2019-03-31T16:41:55.547Z,102540.45
2019-03-31T16:45:30.259Z,102536.04
2019-03-31T16:48:50.402Z,102538.58
2019-03-31T16:51:57.854Z,102545.11
2019-03-31T16:55:02.991Z,102545.53
2019-03-31T16:58:09.471Z,102545.27
2019-03-31T17:01:13.995Z,102544.80
2019-03-31T17:04:30.739Z,102550.27
2019-03-31T17:07:41.129Z,102561.60
2019-03-31T17:10:45.819Z,102559.50
2019-03-31T17:13:52.173Z,102565.70
2019-03-31T17:16:59.722Z,102563.66
2019-03-31T17:20:05.737Z,102561.91
2019-03-31T17:23:10.326Z,102568.64
2019-03-31T17:26:15.164Z,102563.72
2019-03-31T17:29:27.200Z,102573.80
2019-03-31T17:32:54.270Z,102569.17
2019-03-31T17:36:01.934Z,102570.13
2019-03-31T17:39:08.495Z,102573.01
2019-03-31T17:42:13.159Z,102568.19
2019-03-31T17:45:18.864Z,102569.31
2019-03-31T17:48:26.264Z,102573.14
2019-03-31T17:51:30.865Z,102574.84
2019-03-31T17:54:35.343Z,102579.45
2019-03-31T17:57:42.382Z,102580.68
2019-03-31T18:00:46.086Z,102580.84
2019-03-31T18:03:51.040Z,102582.87
2019-03-31T18:06:55.615Z,102576.06
2019-03-31T18:10:00.499Z,102584.67
2019-03-31T18:13:05.549Z,102592.10
2019-03-31T18:16:10.171Z,102589.76
2019-03-31T18:19:14.859Z,102598.88
2019-03-31T18:22:23.121Z,102610.31
2019-03-31T18:25:28.028Z,102611.14
2019-03-31T18:28:33.497Z,102613.11
2019-03-31T18:31:42.063Z,102612.53
2019-03-31T18:34:47.144Z,102625.63
2019-03-31T18:37:54.495Z,102624.56
2019-03-31T18:45:15.190Z,102632.31
2019-03-31T18:48:20.297Z,102633.09
2019-03-31T18:51:25.779Z,102636.42
2019-03-31T18:54:51.598Z,102639.33
2019-03-31T18:58:25.665Z,102643.85
2019-03-31T19:01:52.050Z,102651.13
2019-03-31T19:08:59.785Z,102654.51
2019-03-31T19:12:22.951Z,102665.47
2019-03-31T19:16:04.534Z,102666.41
2019-03-31T19:19:29.967Z,102663.16
2019-03-31T19:22:56.232Z,102669.20
2019-03-31T19:26:26.991Z,102670.03
2019-03-31T19:29:50.829Z,102677.26
2019-03-31T19:33:44.388Z,102674.97
2019-03-31T19:37:12.244Z,102675.08
2019-03-31T19:44:30.793Z,102681.77
2019-03-31T19:48:01.341Z,102680.84
2019-03-31T19:51:42.381Z,102688.84
2019-03-31T19:59:29.321Z,102697.45
2019-03-31T20:07:30.265Z,102698.94
2019-03-31T20:34:30.904Z,102719.40
2019-03-31T20:49:31.750Z,102729.34
2019-03-31T20:52:56.990Z,102733.66
2019-03-31T20:56:05.387Z,102740.36
2019-03-31T20:59:11.927Z,102745.50
2019-03-31T21:02:32.073Z,102741.44
2019-03-31T21:28:54.686Z,102763.27
2019-03-31T21:32:33.689Z,102772.38
2019-03-31T21:47:59.772Z,102773.89
2019-03-31T21:51:34.443Z,102776.34
2019-03-31T21:54:45.843Z,102775.63
2019-03-31T21:58:02.451Z,102779.16
2019-03-31T22:01:13.990Z,102782.92
2019-03-31T22:04:39.767Z,102788.09
2019-03-31T22:08:20.702Z,102790.84
2019-03-31T22:11:35.920Z,102792.16
2019-03-31T22:15:13.514Z,102780.08
2019-03-31T22:18:18.665Z,102784.92
2019-03-31T22:22:10.502Z,102789.90
2019-03-31T22:25:42.265Z,102784.02
2019-03-31T22:28:51.651Z,102781.89
2019-03-31T22:35:34.780Z,102786.91
2019-03-31T22:39:09.077Z,102781.02
2019-03-31T22:42:42.276Z,102784.88
2019-03-31T22:45:47.388Z,102786.81
2019-03-31T22:48:56.243Z,102793.73
2019-03-31T22:52:01.526Z,102791.52
2019-03-31T22:59:35.940Z,102792.84
2019-03-31T23:03:17.687Z,102785.59
2019-03-31T23:06:25.253Z,102792.47
2019-03-31T23:09:42.068Z,102797.05
2019-03-31T23:12:49.933Z,102794.31
2019-03-31T23:15:54.996Z,102783.27
2019-03-31T23:18:59.743Z,102785.84
2019-03-31T23:22:28.277Z,102786.66
2019-03-31T23:25:50.968Z,102782.48
2019-03-31T23:28:59.837Z,102785.83
2019-03-31T23:35:36.389Z,102786.19
2019-03-31T23:38:41.411Z,102784.57
2019-03-31T23:41:46.703Z,102785.38
2019-03-31T23:44:59.084Z,102789.53
2019-03-31T23:48:32.480Z,102784.25
2019-03-31T23:51:41.005Z,102785.33
2019-03-31T23:54:45.936Z,102792.45
2019-03-31T23:57:54.149Z,102787.51
